createdAt,value
2019-01-15T00:00:13.110Z,76.65
2019-01-15T00:01:13.063Z,77.03
2019-01-15T00:02:13.077Z,77.17
2019-01-15T00:03:13.036Z,76.92
2019-01-15T00:04:13.031Z,77.66
2019-01-15T00:05:13.063Z,77.23
2019-01-15T00:06:13.012Z,77.69
2019-01-15T00:07:12.995Z,77.34
2019-01-15T00:08:13.884Z,77.34
2019-01-15T00:09:12.971Z,77.45
2019-01-15T00:10:12.961Z,77.23
2019-01-15T00:11:12.979Z,77.13
2019-01-15T00:12:12.945Z,77.13
2019-01-15T00:13:12.926Z,77.13
2019-01-15T00:14:12.914Z,77.13
2019-01-15T00:15:12.909Z,77.13
2019-01-15T00:16:12.921Z,76.92
2019-01-15T00:17:12.882Z,77.03
2019-01-15T00:18:12.887Z,77.45
2019-01-15T00:19:12.861Z,77.45
2019-01-15T00:20:12.848Z,77.62
2019-01-15T00:21:12.870Z,76.89
2019-01-15T00:22:13.082Z,76.89
2019-01-15T00:23:12.820Z,77.51
2019-01-15T00:24:12.818Z,77.51
2019-01-15T00:25:12.801Z,77.72
2019-01-15T00:26:12.791Z,77.23
2019-01-15T00:27:12.798Z,77.31
2019-01-15T00:28:12.815Z,77.34
2019-01-15T00:29:12.750Z,77.62
2019-01-15T00:30:12.822Z,77.62
2019-01-15T00:31:12.727Z,77.51
2019-01-15T00:32:12.722Z,77.45
2019-01-15T00:33:12.707Z,77.55
2019-01-15T00:34:12.735Z,77.41
2019-01-15T00:35:12.698Z,77.72
2019-01-15T00:36:12.672Z,77.31
2019-01-15T00:37:12.660Z,77.93
2019-01-15T00:38:12.685Z,77.66
2019-01-15T00:39:12.640Z,77.62
2019-01-15T00:40:12.636Z,77.83
2019-01-15T00:41:12.622Z,77.31
2019-01-15T00:42:15.482Z,77.93
2019-01-15T00:43:12.611Z,77.51
2019-01-15T00:44:12.829Z,78.03
2019-01-15T00:45:13.308Z,77.45
2019-01-15T00:46:12.563Z,77.41
2019-01-15T00:47:12.569Z,77.51
2019-01-15T00:48:12.545Z,77.41
2019-01-15T00:49:12.571Z,77.72
2019-01-15T00:50:12.531Z,77.93
2019-01-15T00:51:12.519Z,77.31
2019-01-15T00:52:12.500Z,77.20
2019-01-15T00:53:12.495Z,77.55
2019-01-15T00:54:12.479Z,77.93
2019-01-15T00:55:12.483Z,77.62
2019-01-15T00:56:12.457Z,77.72
2019-01-15T00:57:12.445Z,77.31
2019-01-15T00:58:12.438Z,77.51
2019-01-15T00:59:12.418Z,77.76
2019-01-15T01:00:12.449Z,77.41
2019-01-15T01:01:12.402Z,77.83
2019-01-15T01:02:12.389Z,77.20
2019-01-15T01:03:12.375Z,77.10
2019-01-15T01:04:12.397Z,77.10
2019-01-15T01:05:12.377Z,77.66
2019-01-15T01:06:12.351Z,77.20
2019-01-15T01:07:12.333Z,76.99
2019-01-15T01:08:12.325Z,77.10
2019-01-15T01:09:12.313Z,76.99
2019-01-15T01:10:12.303Z,76.99
2019-01-15T01:11:12.349Z,77.10
2019-01-15T01:12:12.281Z,76.89
2019-01-15T01:13:12.264Z,76.89
2019-01-15T01:14:12.265Z,75.95
2019-01-15T01:15:12.244Z,76.26
2019-01-15T01:16:12.235Z,76.57
2019-01-15T01:17:12.264Z,76.06
2019-01-15T01:18:12.210Z,76.26
2019-01-15T01:19:12.205Z,76.68
2019-01-15T01:20:12.193Z,76.68
2019-01-15T01:21:12.183Z,77.31
2019-01-15T01:22:12.206Z,76.99
2019-01-15T01:23:12.155Z,76.47
2019-01-15T01:24:12.148Z,76.89
2019-01-15T01:25:12.134Z,77.20
2019-01-15T01:26:12.126Z,76.89
2019-01-15T01:27:12.126Z,77.31
2019-01-15T01:28:12.188Z,76.89
2019-01-15T01:29:12.090Z,75.85
2019-01-15T01:30:12.078Z,75.95
2019-01-15T01:31:12.067Z,76.47
2019-01-15T01:32:12.071Z,76.26
2019-01-15T01:33:12.085Z,75.95
2019-01-15T01:34:12.035Z,76.06
2019-01-15T01:35:12.029Z,75.85
2019-01-15T01:36:12.022Z,76.16
2019-01-15T01:37:12.014Z,76.26
2019-01-15T01:38:12.029Z,76.16
2019-01-15T01:39:11.981Z,76.12
2019-01-15T01:40:11.968Z,76.26
2019-01-15T01:41:11.965Z,76.26
2019-01-15T01:42:11.956Z,76.06
2019-01-15T01:43:11.936Z,76.16
2019-01-15T01:44:11.956Z,76.26
2019-01-15T01:45:11.927Z,76.16
2019-01-15T01:46:11.907Z,76.33
2019-01-15T01:47:11.896Z,76.23
2019-01-15T01:48:11.885Z,76.16
2019-01-15T01:49:11.896Z,76.54
2019-01-15T01:50:11.867Z,76.43
2019-01-15T01:51:11.855Z,76.37
2019-01-15T01:52:11.837Z,75.95
2019-01-15T01:53:11.834Z,76.06
2019-01-15T01:54:11.821Z,75.85
2019-01-15T01:55:11.837Z,76.47
2019-01-15T01:56:11.823Z,76.06
2019-01-15T01:57:11.837Z,75.95
2019-01-15T01:58:11.776Z,76.16
2019-01-15T01:59:11.759Z,76.57
2019-01-15T02:00:11.748Z,75.92
2019-01-15T02:01:11.743Z,76.57
2019-01-15T02:02:11.736Z,76.26
2019-01-15T02:03:11.734Z,76.37
2019-01-15T02:04:11.712Z,76.06
2019-01-15T02:05:11.727Z,76.06
2019-01-15T02:06:11.683Z,76.16
2019-01-15T02:07:11.676Z,75.95
2019-01-15T02:08:11.667Z,76.12
2019-01-15T02:09:11.657Z,76.54
2019-01-15T02:10:11.689Z,76.16
2019-01-15T02:11:11.640Z,76.47
2019-01-15T02:12:11.625Z,76.57
2019-01-15T02:13:11.609Z,76.16
2019-01-15T02:14:11.613Z,76.47
2019-01-15T02:15:11.594Z,75.85
2019-01-15T02:16:11.601Z,76.02
2019-01-15T02:17:11.568Z,75.40
2019-01-15T02:18:11.555Z,75.60
2019-01-15T02:19:11.539Z,76.02
2019-01-15T02:20:11.546Z,75.71
2019-01-15T02:21:11.549Z,75.71
2019-01-15T02:22:11.507Z,75.19
2019-01-15T02:23:11.503Z,74.98
2019-01-15T02:24:11.487Z,75.60
2019-01-15T02:25:11.475Z,74.87
2019-01-15T02:26:11.467Z,74.77
2019-01-15T02:27:11.463Z,74.66
2019-01-15T02:28:11.447Z,74.66
2019-01-15T02:29:11.435Z,74.63
2019-01-15T02:30:11.427Z,74.84
2019-01-15T02:31:11.441Z,74.87
2019-01-15T02:32:11.397Z,75.05
2019-01-15T02:33:11.394Z,74.74
2019-01-15T02:34:11.374Z,74.74
2019-01-15T02:35:11.406Z,74.74
2019-01-15T02:36:11.353Z,74.95
2019-01-15T02:37:11.377Z,75.57
2019-01-15T02:38:11.332Z,74.95
2019-01-15T02:39:11.324Z,75.05
2019-01-15T02:40:11.317Z,75.67
2019-01-15T02:41:11.298Z,75.29
2019-01-15T02:42:11.357Z,75.19
2019-01-15T02:43:11.288Z,75.57
2019-01-15T02:44:11.273Z,75.67
2019-01-15T02:45:11.255Z,75.50
2019-01-15T02:46:11.339Z,75.81
2019-01-15T02:47:11.281Z,75.60
2019-01-15T02:48:11.277Z,75.50
2019-01-15T02:49:11.215Z,75.81
2019-01-15T02:50:11.206Z,75.71
2019-01-15T02:51:11.189Z,76.54
2019-01-15T02:52:11.191Z,75.81
2019-01-15T02:53:11.197Z,76.23
2019-01-15T02:54:11.172Z,76.33
2019-01-15T02:55:11.151Z,76.02
2019-01-15T02:56:11.138Z,76.16
2019-01-15T02:57:11.129Z,76.37
2019-01-15T02:58:11.189Z,76.23
2019-01-15T02:59:11.102Z,76.26
2019-01-15T03:00:11.174Z,76.06
2019-01-15T03:01:11.087Z,76.89
2019-01-15T03:02:11.067Z,76.86
2019-01-15T03:03:11.089Z,77.41
2019-01-15T03:04:11.049Z,77.62
2019-01-15T03:05:11.060Z,77.62
2019-01-15T03:06:11.030Z,78.03
2019-01-15T03:07:11.020Z,77.51
2019-01-15T03:08:11.001Z,77.72
2019-01-15T03:09:10.990Z,77.83
2019-01-15T03:10:11.023Z,77.86
2019-01-15T03:11:10.972Z,77.76
2019-01-15T03:12:10.969Z,78.07
2019-01-15T03:13:10.967Z,78.17
2019-01-15T03:14:18.853Z,78.49
2019-01-15T03:15:10.945Z,78.28
2019-01-15T03:16:10.917Z,78.03
2019-01-15T03:17:10.907Z,77.86
2019-01-15T03:18:10.897Z,78.28
2019-01-15T03:19:10.883Z,78.69
2019-01-15T03:20:10.906Z,78.80
2019-01-15T03:21:10.879Z,78.91
2019-01-15T03:22:10.848Z,79.11
2019-01-15T03:23:10.839Z,79.11
2019-01-15T03:24:10.824Z,79.36
2019-01-15T03:25:10.833Z,79.32
2019-01-15T03:26:10.834Z,79.22
2019-01-15T03:27:10.796Z,79.11
2019-01-15T03:28:10.788Z,79.01
2019-01-15T03:29:10.770Z,78.94
2019-01-15T03:30:10.765Z,79.43
2019-01-15T03:31:10.796Z,79.98
2019-01-15T03:32:10.753Z,79.88
2019-01-15T03:33:10.726Z,79.77
2019-01-15T03:34:10.714Z,79.57
2019-01-15T03:35:10.704Z,79.88
2019-01-15T03:36:10.692Z,80.30
2019-01-15T03:37:10.734Z,80.30
2019-01-15T03:38:10.676Z,80.09
2019-01-15T03:39:10.667Z,79.98
2019-01-15T03:40:10.653Z,80.09
2019-01-15T03:41:10.641Z,80.30
2019-01-15T03:42:10.625Z,80.51
2019-01-15T03:43:10.648Z,80.09
2019-01-15T03:44:10.620Z,80.16
2019-01-15T03:45:10.592Z,79.94
2019-01-15T03:46:10.598Z,79.98
2019-01-15T03:47:10.577Z,79.98
2019-01-15T03:48:10.591Z,80.36
2019-01-15T03:49:10.562Z,80.05
2019-01-15T03:50:10.539Z,80.26
2019-01-15T03:51:10.526Z,80.16
2019-01-15T03:52:10.517Z,80.16
2019-01-15T03:53:10.538Z,80.26
2019-01-15T03:54:10.496Z,80.16
2019-01-15T03:55:10.489Z,80.36
2019-01-15T03:56:10.469Z,80.36
2019-01-15T03:57:10.461Z,80.16
2019-01-15T03:58:10.482Z,80.47
2019-01-15T03:59:10.448Z,80.47
2019-01-15T04:00:10.450Z,80.36
2019-01-15T04:01:10.422Z,79.74
2019-01-15T04:02:10.437Z,79.84
2019-01-15T04:03:10.397Z,79.39
2019-01-15T04:04:10.389Z,79.60
2019-01-15T04:05:10.373Z,79.70
2019-01-15T04:06:10.393Z,79.74
2019-01-15T04:07:10.363Z,79.60
2019-01-15T04:08:10.343Z,79.49
2019-01-15T04:09:10.368Z,79.60
2019-01-15T04:10:10.325Z,79.80
2019-01-15T04:11:10.308Z,79.49
2019-01-15T04:12:10.302Z,79.60
2019-01-15T04:13:11.423Z,79.70
2019-01-15T04:14:10.272Z,79.70
2019-01-15T04:15:10.284Z,79.70
2019-01-15T04:16:10.250Z,80.12
2019-01-15T04:17:10.241Z,80.22
2019-01-15T04:18:10.228Z,80.22
2019-01-15T04:19:10.218Z,80.02
2019-01-15T04:20:10.244Z,80.08
2019-01-15T04:21:10.198Z,80.29
2019-01-15T04:22:10.191Z,80.19
2019-01-15T04:23:10.180Z,80.29
2019-01-15T04:24:10.170Z,80.40
2019-01-15T04:25:10.185Z,80.54
2019-01-15T04:26:10.147Z,80.29
2019-01-15T04:27:10.131Z,80.43
2019-01-15T04:28:10.124Z,80.40
2019-01-15T04:29:10.114Z,80.40
2019-01-15T04:30:10.098Z,80.40
2019-01-15T04:31:10.119Z,80.50
2019-01-15T04:32:10.092Z,80.57
2019-01-15T04:33:10.075Z,80.81
2019-01-15T04:34:10.061Z,80.19
2019-01-15T04:35:10.043Z,80.36
2019-01-15T04:36:10.074Z,80.46
2019-01-15T04:37:10.022Z,80.15
2019-01-15T04:38:10.021Z,80.26
2019-01-15T04:39:10.002Z,80.36
2019-01-15T04:40:09.991Z,80.57
2019-01-15T04:41:09.978Z,80.67
2019-01-15T04:42:09.983Z,80.67
2019-01-15T04:43:09.968Z,80.67
2019-01-15T04:44:09.950Z,80.67
2019-01-15T04:45:09.938Z,80.77
2019-01-15T04:46:09.924Z,80.46
2019-01-15T04:47:09.947Z,80.74
2019-01-15T04:48:09.913Z,80.32
2019-01-15T04:49:09.914Z,80.84
2019-01-15T04:50:09.878Z,80.22
2019-01-15T04:51:09.898Z,80.84
2019-01-15T04:52:09.865Z,80.53
2019-01-15T04:53:09.865Z,80.43
2019-01-15T04:54:09.838Z,80.32
2019-01-15T04:55:09.828Z,80.22
2019-01-15T04:56:09.812Z,80.43
2019-01-15T04:57:09.800Z,80.63
2019-01-15T04:58:09.838Z,80.32
2019-01-15T04:59:09.785Z,80.53
2019-01-15T05:00:09.774Z,80.43
2019-01-15T05:01:09.771Z,80.63
2019-01-15T05:02:09.778Z,80.53
2019-01-15T05:03:09.762Z,80.63
2019-01-15T05:04:09.777Z,80.32
2019-01-15T05:05:09.720Z,80.32
2019-01-15T05:06:09.701Z,80.43
2019-01-15T05:07:09.696Z,80.43
2019-01-15T05:08:09.684Z,80.43
2019-01-15T05:09:09.674Z,80.39
2019-01-15T05:10:09.695Z,80.32
2019-01-15T05:11:09.646Z,80.84
2019-01-15T05:12:09.635Z,80.32
2019-01-15T05:13:09.632Z,80.53
2019-01-15T05:14:09.665Z,80.32
2019-01-15T05:15:09.606Z,80.63
2019-01-15T05:16:09.599Z,80.32
2019-01-15T05:17:09.581Z,80.32
2019-01-15T05:18:09.575Z,80.39
2019-01-15T05:19:09.560Z,80.29
2019-01-15T05:20:09.563Z,80.32
2019-01-15T05:21:09.540Z,80.39
2019-01-15T05:22:09.525Z,80.49
2019-01-15T05:23:09.528Z,80.70
2019-01-15T05:24:09.514Z,80.60
2019-01-15T05:25:09.540Z,80.18
2019-01-15T05:26:09.502Z,80.08
2019-01-15T05:27:10.373Z,79.87
2019-01-15T05:28:09.463Z,79.72
2019-01-15T05:29:09.449Z,79.31
2019-01-15T05:30:09.442Z,80.29
2019-01-15T05:31:09.458Z,79.35
2019-01-15T05:32:09.418Z,79.66
2019-01-15T05:33:09.404Z,79.76
2019-01-15T05:34:09.400Z,79.45
2019-01-15T05:35:09.432Z,79.76
2019-01-15T05:36:09.381Z,78.83
2019-01-15T05:37:09.394Z,78.79
2019-01-15T05:38:09.355Z,78.79
2019-01-15T05:39:09.345Z,78.89
2019-01-15T05:40:09.327Z,79.00
2019-01-15T05:41:09.373Z,79.10
2019-01-15T05:42:09.310Z,79.10
2019-01-15T05:43:09.301Z,78.89
2019-01-15T05:44:10.247Z,79.10
2019-01-15T05:45:09.277Z,78.79
2019-01-15T05:46:09.266Z,79.00
2019-01-15T05:47:09.281Z,79.10
2019-01-15T05:48:09.240Z,79.00
2019-01-15T05:49:09.229Z,79.10
2019-01-15T05:50:09.218Z,79.00
2019-01-15T05:51:09.214Z,79.03
2019-01-15T05:52:09.197Z,78.89
2019-01-15T05:53:09.218Z,78.79
2019-01-15T05:54:09.189Z,78.79
2019-01-15T05:55:09.168Z,78.79
2019-01-15T05:56:09.575Z,78.58
2019-01-15T05:57:09.177Z,78.79
2019-01-15T05:58:09.130Z,77.92
2019-01-15T05:59:09.169Z,77.34
2019-01-15T06:00:09.118Z,77.55
2019-01-15T06:01:09.099Z,78.06
2019-01-15T06:02:09.107Z,78.03
2019-01-15T06:03:09.078Z,78.23
2019-01-15T06:04:09.061Z,77.96
2019-01-15T06:05:09.053Z,77.51
2019-01-15T06:06:09.055Z,77.51
2019-01-15T06:07:09.062Z,77.96
2019-01-15T06:08:09.055Z,77.65
2019-01-15T06:09:09.010Z,77.82
2019-01-15T06:10:09.001Z,77.86
2019-01-15T06:11:09.029Z,77.92
2019-01-15T06:12:08.975Z,77.65
2019-01-15T06:13:08.966Z,77.86
2019-01-15T06:14:08.992Z,77.51
2019-01-15T06:15:08.948Z,77.86
2019-01-15T06:16:08.935Z,77.82
2019-01-15T06:17:08.929Z,77.40
2019-01-15T06:18:08.915Z,77.51
2019-01-15T06:19:08.898Z,76.99
2019-01-15T06:20:08.898Z,77.51
2019-01-15T06:21:08.879Z,77.61
2019-01-15T06:22:08.863Z,77.30
2019-01-15T06:23:08.901Z,77.20
2019-01-15T06:24:08.846Z,77.09
2019-01-15T06:25:08.836Z,76.68
2019-01-15T06:26:08.823Z,75.64
2019-01-15T06:27:08.810Z,76.16
2019-01-15T06:28:08.801Z,76.37
2019-01-15T06:29:08.798Z,75.85
2019-01-15T06:30:08.829Z,75.95
2019-01-15T06:31:08.765Z,75.95
2019-01-15T06:32:08.754Z,76.06
2019-01-15T06:33:08.743Z,75.95
2019-01-15T06:34:08.760Z,76.26
2019-01-15T06:35:08.776Z,76.47
2019-01-15T06:36:08.726Z,77.20
2019-01-15T06:37:08.704Z,76.57
2019-01-15T06:38:08.697Z,76.06
2019-01-15T06:39:08.679Z,76.06
2019-01-15T06:40:08.668Z,76.06
2019-01-15T06:41:08.689Z,76.06
2019-01-15T06:42:08.647Z,76.06
2019-01-15T06:43:08.639Z,75.95
2019-01-15T06:44:08.623Z,75.85
2019-01-15T06:45:08.612Z,75.85
2019-01-15T06:46:08.615Z,75.95
2019-01-15T06:47:08.595Z,76.16
2019-01-15T06:48:08.583Z,76.16
2019-01-15T06:49:08.568Z,76.16
2019-01-15T06:50:08.561Z,75.95
2019-01-15T06:51:08.919Z,75.85
2019-01-15T06:52:08.535Z,75.74
2019-01-15T06:53:08.535Z,76.16
2019-01-15T06:54:08.522Z,75.95
2019-01-15T06:55:08.502Z,75.95
2019-01-15T06:56:08.532Z,76.26
2019-01-15T06:57:08.480Z,76.37
2019-01-15T06:58:08.503Z,75.85
2019-01-15T06:59:08.462Z,76.06
2019-01-15T07:00:08.448Z,76.06
2019-01-15T07:01:08.436Z,75.74
2019-01-15T07:02:08.435Z,75.74
2019-01-15T07:03:08.416Z,75.74
2019-01-15T07:04:08.435Z,75.74
2019-01-15T07:05:08.401Z,75.43
2019-01-15T07:06:08.394Z,76.16
2019-01-15T07:07:08.375Z,75.74
2019-01-15T07:08:08.363Z,75.32
2019-01-15T07:09:08.351Z,75.32
2019-01-15T07:10:08.352Z,75.43
2019-01-15T07:11:08.333Z,75.85
2019-01-15T07:12:08.314Z,76.26
2019-01-15T07:13:08.485Z,75.43
2019-01-15T07:14:08.292Z,75.32
2019-01-15T07:15:08.312Z,75.32
2019-01-15T07:16:08.284Z,75.32
2019-01-15T07:17:08.266Z,75.64
2019-01-15T07:18:08.253Z,75.19
2019-01-15T07:19:08.237Z,74.70
2019-01-15T07:20:08.234Z,75.22
2019-01-15T07:21:08.252Z,74.98
2019-01-15T07:22:08.290Z,75.43
2019-01-15T07:23:08.218Z,74.80
2019-01-15T07:24:08.201Z,75.01
2019-01-15T07:25:08.249Z,75.22
2019-01-15T07:26:08.197Z,75.22
2019-01-15T07:27:08.153Z,74.80
2019-01-15T07:28:08.142Z,75.43
2019-01-15T07:29:08.133Z,74.91
2019-01-15T07:30:08.120Z,74.91
2019-01-15T07:31:08.110Z,75.64
2019-01-15T07:32:08.112Z,75.64
2019-01-15T07:33:08.087Z,75.19
2019-01-15T07:34:08.080Z,74.98
2019-01-15T07:35:08.061Z,75.50
2019-01-15T07:36:08.058Z,75.32
2019-01-15T07:37:08.052Z,75.32
2019-01-15T07:38:08.037Z,75.71
2019-01-15T07:39:08.021Z,75.71
2019-01-15T07:40:08.024Z,75.81
2019-01-15T07:41:07.997Z,75.50
2019-01-15T07:42:07.996Z,75.92
2019-01-15T07:43:08.017Z,75.81
2019-01-15T07:44:07.964Z,75.92
2019-01-15T07:45:07.963Z,76.23
2019-01-15T07:46:07.941Z,76.26
2019-01-15T07:47:07.938Z,75.81
2019-01-15T07:48:07.928Z,75.92
2019-01-15T07:49:07.984Z,75.92
2019-01-15T07:50:07.901Z,75.71
2019-01-15T07:51:07.892Z,76.23
2019-01-15T07:52:07.895Z,76.12
2019-01-15T07:53:07.865Z,75.50
2019-01-15T07:54:07.867Z,75.50
2019-01-15T07:55:07.852Z,75.29
2019-01-15T07:56:07.832Z,75.29
2019-01-15T07:57:07.826Z,75.60
2019-01-15T07:58:07.833Z,75.81
2019-01-15T07:59:07.806Z,75.60
2019-01-15T08:00:07.798Z,75.50
2019-01-15T08:01:07.787Z,75.71
2019-01-15T08:02:07.767Z,75.92
2019-01-15T08:03:07.755Z,75.81
2019-01-15T08:04:07.750Z,75.71
2019-01-15T08:05:07.738Z,76.23
2019-01-15T08:06:07.751Z,76.23
2019-01-15T08:07:07.718Z,76.02
2019-01-15T08:08:07.701Z,75.81
2019-01-15T08:09:07.707Z,77.06
2019-01-15T08:10:07.684Z,76.75
2019-01-15T08:11:07.676Z,76.64
2019-01-15T08:12:07.721Z,76.95
2019-01-15T08:13:07.654Z,77.16
2019-01-15T08:14:11.870Z,76.95
2019-01-15T08:15:07.627Z,76.95
2019-01-15T08:16:07.619Z,77.68
2019-01-15T08:17:07.603Z,77.68
2019-01-15T08:18:07.628Z,76.75
2019-01-15T08:19:07.589Z,76.95
2019-01-15T08:20:07.576Z,77.16
2019-01-15T08:21:07.593Z,77.37
2019-01-15T08:22:07.554Z,77.16
2019-01-15T08:23:07.569Z,77.89
2019-01-15T08:24:07.556Z,77.06
2019-01-15T08:25:07.520Z,77.89
2019-01-15T08:26:07.525Z,77.54
2019-01-15T08:27:07.509Z,77.68
2019-01-15T08:28:07.553Z,77.64
2019-01-15T08:29:07.481Z,77.44
2019-01-15T08:30:07.468Z,77.12
2019-01-15T08:31:07.449Z,77.16
2019-01-15T08:32:07.445Z,77.44
2019-01-15T08:33:07.429Z,77.68
2019-01-15T08:34:07.449Z,77.47
2019-01-15T08:35:07.407Z,77.89
2019-01-15T08:36:07.414Z,77.47
2019-01-15T08:37:07.391Z,77.44
2019-01-15T08:38:07.377Z,77.99
2019-01-15T08:39:07.367Z,78.16
2019-01-15T08:40:07.384Z,77.75
2019-01-15T08:41:07.341Z,77.95
2019-01-15T08:42:07.336Z,78.16
2019-01-15T08:43:07.321Z,77.64
2019-01-15T08:44:07.308Z,77.85
2019-01-15T08:45:07.353Z,78.68
2019-01-15T08:46:07.289Z,78.89
2019-01-15T08:47:07.277Z,78.89
2019-01-15T08:48:07.268Z,78.51
2019-01-15T08:49:07.297Z,78.47
2019-01-15T08:50:07.248Z,78.89
2019-01-15T08:51:07.288Z,78.92
2019-01-15T08:52:07.225Z,78.92
2019-01-15T08:53:07.212Z,78.61
2019-01-15T08:54:07.205Z,78.51
2019-01-15T08:55:07.195Z,78.41
2019-01-15T08:56:07.182Z,78.41
2019-01-15T08:57:07.205Z,79.65
2019-01-15T08:58:07.164Z,79.34
2019-01-15T08:59:07.146Z,79.41
2019-01-15T09:00:07.143Z,80.07
2019-01-15T09:01:07.170Z,79.97
2019-01-15T09:02:07.127Z,79.86
2019-01-15T09:03:07.117Z,79.97
2019-01-15T09:04:07.093Z,80.14
2019-01-15T09:05:07.079Z,80.69
2019-01-15T09:06:07.074Z,81.01
2019-01-15T09:07:07.091Z,80.55
2019-01-15T09:08:07.063Z,80.59
2019-01-15T09:09:07.036Z,80.80
2019-01-15T09:10:07.026Z,81.52
2019-01-15T09:11:07.063Z,81.84
2019-01-15T09:12:07.018Z,81.11
2019-01-15T09:13:06.996Z,81.32
2019-01-15T09:14:07.004Z,81.42
2019-01-15T09:15:16.931Z,81.32
2019-01-15T09:16:06.958Z,82.25
2019-01-15T09:17:10.962Z,82.04
2019-01-15T09:18:06.940Z,82.25
2019-01-15T09:19:06.926Z,82.35
2019-01-15T09:20:06.923Z,82.56
2019-01-15T09:21:06.904Z,82.56
2019-01-15T09:22:06.948Z,82.77
2019-01-15T09:23:06.882Z,83.39
2019-01-15T09:24:06.885Z,83.22
2019-01-15T09:25:06.864Z,83.43
2019-01-15T09:26:06.908Z,83.64
2019-01-15T09:27:06.842Z,84.16
2019-01-15T09:28:06.869Z,84.37
2019-01-15T09:29:06.824Z,84.47
2019-01-15T09:30:06.809Z,84.61
2019-01-15T09:31:06.797Z,84.68
2019-01-15T09:32:06.799Z,84.58
2019-01-15T09:33:06.787Z,84.68
2019-01-15T09:34:06.807Z,84.47
2019-01-15T09:35:06.752Z,84.47
2019-01-15T09:36:06.745Z,84.68
2019-01-15T09:37:06.747Z,84.47
2019-01-15T09:38:06.766Z,84.68
2019-01-15T09:39:06.705Z,84.58
2019-01-15T09:40:06.697Z,85.10
2019-01-15T09:41:06.683Z,84.47
2019-01-15T09:42:06.680Z,84.47
2019-01-15T09:43:06.667Z,84.37
2019-01-15T09:44:06.692Z,84.37
2019-01-15T09:45:06.644Z,84.58
2019-01-15T09:46:06.627Z,84.12
2019-01-15T09:47:06.620Z,83.91
2019-01-15T09:48:06.612Z,84.01
2019-01-15T09:49:06.602Z,84.12
2019-01-15T09:50:06.622Z,84.64
2019-01-15T09:51:06.573Z,84.43
2019-01-15T09:52:13.061Z,84.64
2019-01-15T09:53:07.567Z,84.43
2019-01-15T09:54:06.596Z,84.37
2019-01-15T09:55:06.538Z,84.53
2019-01-15T09:56:06.526Z,84.33
2019-01-15T09:57:06.507Z,84.43
2019-01-15T09:58:06.504Z,84.43
2019-01-15T09:59:06.488Z,84.33
2019-01-15T10:00:06.509Z,84.43
2019-01-15T10:01:06.463Z,84.64
2019-01-15T10:02:06.457Z,84.84
2019-01-15T10:03:06.446Z,84.64
2019-01-15T10:04:06.441Z,84.84
2019-01-15T10:05:06.472Z,84.53
2019-01-15T10:06:06.436Z,84.53
2019-01-15T10:07:06.413Z,84.95
2019-01-15T10:08:06.417Z,85.05
2019-01-15T10:09:06.378Z,84.64
2019-01-15T10:10:06.381Z,86.72
2019-01-15T10:11:06.395Z,85.85
2019-01-15T10:12:06.374Z,85.64
2019-01-15T10:13:06.336Z,86.30
2019-01-15T10:14:06.330Z,86.19
2019-01-15T10:15:06.311Z,86.72
2019-01-15T10:16:06.316Z,86.61
2019-01-15T10:17:06.345Z,86.82
2019-01-15T10:18:06.286Z,86.72
2019-01-15T10:19:06.273Z,86.44
2019-01-15T10:20:06.258Z,86.30
2019-01-15T10:21:06.247Z,86.61
2019-01-15T10:22:06.246Z,86.93
2019-01-15T10:23:06.264Z,87.03
2019-01-15T10:24:06.221Z,86.72
2019-01-15T10:25:06.206Z,86.72
2019-01-15T10:26:06.194Z,86.19
2019-01-15T10:27:06.184Z,86.72
2019-01-15T10:28:06.225Z,87.92
2019-01-15T10:29:06.164Z,86.93
2019-01-15T10:30:06.204Z,86.57
2019-01-15T10:31:06.136Z,85.99
2019-01-15T10:32:06.136Z,85.99
2019-01-15T10:33:06.128Z,85.88
2019-01-15T10:34:06.136Z,86.61
2019-01-15T10:35:06.098Z,85.95
2019-01-15T10:36:06.114Z,86.30
2019-01-15T10:37:06.069Z,85.78
2019-01-15T10:38:06.062Z,85.85
2019-01-15T10:39:06.108Z,85.95
2019-01-15T10:40:06.042Z,85.43
2019-01-15T10:41:06.032Z,85.53
2019-01-15T10:42:06.025Z,85.43
2019-01-15T10:43:06.005Z,84.81
2019-01-15T10:44:05.994Z,85.02
2019-01-15T10:45:06.013Z,84.91
2019-01-15T10:46:05.975Z,85.02
2019-01-15T10:47:05.965Z,84.88
2019-01-15T10:48:05.952Z,84.67
2019-01-15T10:49:05.975Z,84.56
2019-01-15T10:50:05.982Z,84.46
2019-01-15T10:51:05.921Z,84.46
2019-01-15T10:52:05.910Z,84.46
2019-01-15T10:53:05.896Z,84.36
2019-01-15T10:54:05.889Z,84.36
2019-01-15T10:55:05.872Z,83.84
2019-01-15T10:56:05.890Z,84.11
2019-01-15T10:57:05.854Z,83.90
2019-01-15T10:58:05.844Z,84.21
2019-01-15T10:59:05.834Z,83.38
2019-01-15T11:00:05.868Z,83.48
2019-01-15T11:01:05.816Z,82.97
2019-01-15T11:02:05.813Z,82.45
2019-01-15T11:03:05.794Z,82.14
2019-01-15T11:04:05.774Z,83.59
2019-01-15T11:05:05.769Z,83.38
2019-01-15T11:06:05.785Z,83.48
2019-01-15T11:07:05.751Z,83.48
2019-01-15T11:08:05.750Z,83.59
2019-01-15T11:09:05.760Z,82.41
2019-01-15T11:10:06.443Z,82.55
2019-01-15T11:11:05.762Z,82.65
2019-01-15T11:12:05.739Z,82.34
2019-01-15T11:13:05.752Z,82.55
2019-01-15T11:14:05.692Z,82.45
2019-01-15T11:15:05.668Z,82.51
2019-01-15T11:16:05.649Z,82.65
2019-01-15T11:17:05.769Z,83.17
2019-01-15T11:18:05.623Z,82.82
2019-01-15T11:19:05.610Z,82.55
2019-01-15T11:20:05.616Z,82.41
2019-01-15T11:21:05.594Z,82.45
2019-01-15T11:22:05.597Z,82.45
2019-01-15T11:23:05.625Z,82.34
2019-01-15T11:24:05.603Z,82.55
2019-01-15T11:25:05.554Z,82.93
2019-01-15T11:26:05.539Z,83.38
2019-01-15T11:27:05.524Z,82.82
2019-01-15T11:28:05.517Z,82.82
2019-01-15T11:29:05.554Z,82.93
2019-01-15T11:30:05.534Z,82.51
2019-01-15T11:31:05.525Z,83.76
2019-01-15T11:32:05.474Z,84.07
2019-01-15T11:33:05.461Z,83.24
2019-01-15T11:34:05.508Z,84.07
2019-01-15T11:35:05.438Z,84.07
2019-01-15T11:36:05.426Z,84.52
2019-01-15T11:37:05.421Z,84.48
2019-01-15T11:38:05.443Z,85.14
2019-01-15T11:39:05.400Z,85.52
2019-01-15T11:40:05.385Z,86.39
2019-01-15T11:41:05.370Z,86.49
2019-01-15T11:42:05.386Z,86.60
2019-01-15T11:43:05.380Z,87.01
2019-01-15T11:44:05.338Z,87.43
2019-01-15T11:45:05.335Z,87.26
2019-01-15T11:46:05.346Z,87.88
2019-01-15T11:47:05.310Z,88.30
2019-01-15T11:48:05.335Z,88.82
2019-01-15T11:49:05.300Z,88.82
2019-01-15T11:50:06.616Z,89.03
2019-01-15T11:51:05.332Z,88.82
2019-01-15T11:52:05.308Z,89.09
2019-01-15T11:53:05.242Z,89.29
2019-01-15T11:54:05.262Z,89.40
2019-01-15T11:55:05.228Z,89.09
2019-01-15T11:56:05.212Z,90.06
2019-01-15T11:57:05.228Z,89.92
2019-01-15T11:58:05.189Z,89.81
2019-01-15T11:59:05.214Z,89.75
2019-01-15T12:00:05.168Z,90.02
2019-01-15T12:01:05.155Z,89.92
2019-01-15T12:02:05.166Z,89.92
2019-01-15T12:03:05.132Z,89.50
2019-01-15T12:04:05.127Z,89.29
2019-01-15T12:05:05.107Z,89.92
2019-01-15T12:06:05.100Z,89.29
2019-01-15T12:07:05.086Z,90.02
2019-01-15T12:08:05.075Z,89.29
2019-01-15T12:09:05.106Z,88.98
2019-01-15T12:10:05.062Z,89.09
2019-01-15T12:11:05.046Z,88.67
2019-01-15T12:12:05.036Z,88.46
2019-01-15T12:13:05.025Z,88.67
2019-01-15T12:14:05.013Z,88.78
2019-01-15T12:15:10.790Z,88.32
2019-01-15T12:16:05.984Z,88.11
2019-01-15T12:17:04.981Z,88.21
2019-01-15T12:18:04.972Z,88.42
2019-01-15T12:19:04.956Z,87.70
2019-01-15T12:20:04.949Z,87.59
2019-01-15T12:21:04.957Z,86.76
2019-01-15T12:22:04.935Z,87.38
2019-01-15T12:23:04.978Z,87.28
2019-01-15T12:24:05.278Z,87.45
2019-01-15T12:25:04.896Z,87.24
2019-01-15T12:26:04.945Z,87.76
2019-01-15T12:27:04.886Z,87.24
2019-01-15T12:28:04.857Z,87.76
2019-01-15T12:29:04.850Z,86.93
2019-01-15T12:30:04.861Z,86.00
2019-01-15T12:31:04.829Z,86.72
2019-01-15T12:32:04.898Z,86.83
2019-01-15T12:33:04.800Z,86.62
2019-01-15T12:34:04.788Z,87.24
2019-01-15T12:35:04.795Z,87.45
2019-01-15T12:36:05.457Z,87.55
2019-01-15T12:37:04.977Z,87.76
2019-01-15T12:38:04.744Z,88.18
2019-01-15T12:39:04.806Z,88.48
2019-01-15T12:40:04.723Z,88.39
2019-01-15T12:41:04.717Z,88.69
2019-01-15T12:42:04.743Z,89.11
2019-01-15T12:43:04.698Z,89.62
2019-01-15T12:44:04.682Z,89.73
2019-01-15T12:45:04.669Z,90.45
2019-01-15T12:46:04.658Z,90.56
2019-01-15T12:47:04.711Z,90.56
2019-01-15T12:48:04.657Z,91.08
2019-01-15T12:49:04.642Z,91.49
2019-01-15T12:50:04.622Z,91.53
2019-01-15T12:51:04.607Z,92.16
2019-01-15T12:52:04.605Z,91.53